Time,TemperatureF,DewpointF,PressureIn,WindDirection,WindDirectionDegrees,WindSpeedMPH,WindSpeedGustMPH,Humidity,HourlyPrecipIn,Conditions,Clouds,dailyrainin,SoftwareType,DateUTC
2013-03-07 00:01:00,32.2,31.6,29.88,South,180,6.0,6.0,98,0.00,,,0.17,WUHU21623XXSP,2013-03-07 08:01:00,
2013-03-07 00:06:00,32.2,31.6,29.88,South,180,3.8,11.4,98,0.00,,,0.00,WUHU21623XXSP,2013-03-07 08:06:00,
2013-03-07 00:11:00,32.2,31.6,29.88,South,180,6.9,11.4,98,0.00,,,0.00,WUHU21623XXSP,2013-03-07 08:11:00,
2013-03-07 00:16:00,32.2,31.6,29.88,SSE,157,6.5,7.2,98,0.00,,,0.00,WUHU21623XXSP,2013-03-07 08:16:00,
2013-03-07 00:21:00,32.2,31.6,29.89,South,180,10.1,10.1,98,0.00,,,0.00,WUHU21623XXSP,2013-03-07 08:21:00,
2013-03-07 00:26:00,32.2,31.6,29.89,South,180,8.7,10.1,98,0.00,,,0.00,WUHU21623XXSP,2013-03-07 08:26:00,
2013-03-07 00:31:00,32.2,31.6,29.89,South,180,7.8,9.2,98,0.00,,,0.00,WUHU21623XXSP,2013-03-07 08:31:00,
2013-03-07 00:36:00,32.2,31.6,29.89,South,180,8.1,8.1,98,0.00,,,0.00,WUHU21623XXSP,2013-03-07 08:36:00,
2013-03-07 00:41:00,32.2,31.6,29.89,South,180,8.1,8.1,98,0.00,,,0.00,WUHU21623XXSP,2013-03-07 08:41:00,
2013-03-07 00:46:00,32.2,31.6,29.89,South,180,7.6,8.1,98,0.00,,,0.00,WUHU21623XXSP,2013-03-07 08:46:00,
2013-03-07 00:51:00,32.0,31.4,29.90,South,180,7.6,7.6,98,0.00,,,0.00,WUHU21623XXSP,2013-03-07 08:51:00,
2013-03-07 00:56:00,32.2,31.6,29.90,South,180,1.6,7.6,98,0.00,,,0.00,WUHU21623XXSP,2013-03-07 08:56:00,
2013-03-07 01:01:00,32.0,31.4,29.90,South,180,4.5,7.6,98,0.00,,,0.00,WUHU21623XXSP,2013-03-07 09:01:00,
2013-03-07 01:06:00,32.0,31.4,29.90,South,180,1.8,4.5,98,0.00,,,0.00,WUHU21623XXSP,2013-03-07 09:06:00,
2013-03-07 01:11:00,32.0,31.4,29.90,South,180,8.3,8.3,98,0.00,,,0.00,WUHU21623XXSP,2013-03-07 09:11:00,
2013-03-07 01:16:00,32.0,31.4,29.91,South,180,6.9,8.3,98,0.00,,,0.00,WUHU21623XXSP,2013-03-07 09:16:00,
2013-03-07 01:21:00,31.8,31.2,29.91,South,180,2.0,6.9,98,0.00,,,0.00,WUHU21623XXSP,2013-03-07 09:21:00,
2013-03-07 01:26:00,31.8,31.2,29.91,South,180,6.3,6.5,98,0.00,,,0.00,WUHU21623XXSP,2013-03-07 09:26:00,
2013-03-07 01:31:00,31.8,31.2,29.91,South,180,1.6,6.3,98,0.00,,,0.00,WUHU21623XXSP,2013-03-07 09:31:00,
2013-03-07 01:36:00,31.8,31.2,29.92,South,180,1.1,1.8,98,0.00,,,0.00,WUHU21623XXSP,2013-03-07 09:36:00,
2013-03-07 01:41:00,31.8,31.2,29.92,South,180,2.0,2.0,98,0.00,,,0.00,WUHU21623XXSP,2013-03-07 09:41:00,
2013-03-07 01:46:00,32.0,31.4,29.92,South,180,2.0,2.0,98,0.00,,,0.00,WUHU21623XXSP,2013-03-07 09:46:00,
2013-03-07 01:51:00,32.2,31.6,29.92,South,180,0.0,2.0,98,0.00,,,0.00,WUHU21623XXSP,2013-03-07 09:51:00,
2013-03-07 01:56:00,32.2,31.6,29.92,South,180,0.0,0.0,98,0.00,,,0.00,WUHU21623XXSP,2013-03-07 09:56:00,
2013-03-07 02:01:00,32.2,31.9,29.92,South,180,9.8,9.8,99,0.00,,,0.00,WUHU21623XXSP,2013-03-07 10:01:00,
2013-03-07 02:06:00,32.2,31.9,29.92,South,180,0.0,9.8,99,0.00,,,0.00,WUHU21623XXSP,2013-03-07 10:06:00,
2013-03-07 02:11:00,32.2,31.9,29.92,South,180,5.8,9.8,99,0.00,,,0.00,WUHU21623XXSP,2013-03-07 10:11:00,
2013-03-07 02:16:00,32.2,31.9,29.92,South,180,5.8,5.8,99,0.00,,,0.00,WUHU21623XXSP,2013-03-07 10:16:00,
2013-03-07 02:21:00,32.2,31.9,29.92,South,180,7.2,7.2,99,0.00,,,0.00,WUHU21623XXSP,2013-03-07 10:21:00,
2013-03-07 02:26:00,32.2,31.9,29.92,South,180,5.1,7.2,99,0.00,,,0.00,WUHU21623XXSP,2013-03-07 10:26:00,
2013-03-07 02:32:00,32.2,31.9,29.93,South,180,8.7,8.7,99,0.00,,,0.00,WUHU21623XXSP,2013-03-07 10:32:00,
2013-03-07 02:37:00,32.2,31.9,29.93,South,180,8.3,8.7,99,0.00,,,0.00,WUHU21623XXSP,2013-03-07 10:37:00,
2013-03-07 02:42:00,32.2,31.9,29.93,South,180,3.6,8.3,99,0.00,,,0.00,WUHU21623XXSP,2013-03-07 10:42:00,
2013-03-07 02:47:00,32.2,31.9,29.93,South,180,0.0,3.6,99,0.00,,,0.00,WUHU21623XXSP,2013-03-07 10:47:00,
2013-03-07 02:52:00,32.4,32.1,29.93,South,180,0.0,6.3,99,0.00,,,0.00,WUHU21623XXSP,2013-03-07 10:52:00,
2013-03-07 02:57:00,32.2,31.9,29.93,South,180,0.0,6.3,99,0.00,,,0.00,WUHU21623XXSP,2013-03-07 10:57:00,
2013-03-07 03:02:00,32.2,31.9,29.93,South,180,0.0,0.0,99,0.00,,,0.00,WUHU21623XXSP,2013-03-07 11:02:00,
2013-03-07 03:07:00,32.2,31.9,29.93,South,180,0.0,0.0,99,0.00,,,0.00,WUHU21623XXSP,2013-03-07 11:07:00,
2013-03-07 03:12:00,32.4,32.1,29.93,South,180,0.0,0.0,99,0.00,,,0.00,WUHU21623XXSP,2013-03-07 11:12:00,
2013-03-07 03:17:00,32.4,32.1,29.94,South,180,0.0,0.0,99,0.00,,,0.00,WUHU21623XXSP,2013-03-07 11:17:00,
2013-03-07 03:22:00,32.4,32.1,29.94,South,180,0.0,0.0,99,0.00,,,0.00,WUHU21623XXSP,2013-03-07 11:22:00,
2013-03-07 03:27:00,32.4,32.1,29.94,South,180,0.0,0.0,99,0.00,,,0.00,WUHU21623XXSP,2013-03-07 11:27:00,
2013-03-07 03:32:00,32.4,32.1,29.94,South,180,0.0,0.0,99,0.00,,,0.00,WUHU21623XXSP,2013-03-07 11:32:00,
2013-03-07 03:37:00,32.4,32.1,29.94,South,180,0.0,0.0,99,0.00,,,0.00,WUHU21623XXSP,2013-03-07 11:37:00,
2013-03-07 03:42:00,32.4,32.1,29.94,South,180,0.0,0.0,99,0.00,,,0.00,WUHU21623XXSP,2013-03-07 11:42:00,
2013-03-07 03:47:00,32.4,32.1,29.94,South,180,0.0,0.0,99,0.00,,,0.00,WUHU21623XXSP,2013-03-07 11:47:00,
2013-03-07 03:52:00,32.4,32.1,29.94,South,180,0.0,0.0,99,0.00,,,0.00,WUHU21623XXSP,2013-03-07 11:52:00,
2013-03-07 03:57:00,32.4,32.1,29.95,South,180,0.0,0.0,99,0.00,,,0.00,WUHU21623XXSP,2013-03-07 11:57:00,
2013-03-07 04:02:00,32.4,32.1,29.95,South,180,0.0,0.0,99,0.00,,,0.00,WUHU21623XXSP,2013-03-07 12:02:00,
2013-03-07 04:07:00,32.4,32.1,29.95,South,180,0.0,0.0,99,0.00,,,0.00,WUHU21623XXSP,2013-03-07 12:07:00,
2013-03-07 04:12:00,32.4,32.1,29.95,South,180,0.0,0.0,99,0.00,,,0.00,WUHU21623XXSP,2013-03-07 12:12:00,
2013-03-07 04:17:00,32.4,32.1,29.95,South,180,0.0,0.0,99,0.00,,,0.00,WUHU21623XXSP,2013-03-07 12:17:00,
2013-03-07 04:22:00,32.4,32.1,29.95,South,180,0.0,0.0,99,0.00,,,0.00,WUHU21623XXSP,2013-03-07 12:22:00,
2013-03-07 04:27:00,32.4,32.1,29.96,South,180,0.0,0.0,99,0.00,,,0.00,WUHU21623XXSP,2013-03-07 12:27:00,
2013-03-07 04:32:00,32.4,32.1,29.96,South,180,0.0,0.0,99,0.00,,,0.00,WUHU21623XXSP,2013-03-07 12:32:00,
2013-03-07 04:37:00,32.5,32.2,29.96,SSW,202,0.0,0.0,99,0.00,,,0.00,WUHU21623XXSP,2013-03-07 12:37:00,
2013-03-07 04:42:00,32.5,32.2,29.96,SSW,202,0.0,0.0,99,0.00,,,0.00,WUHU21623XXSP,2013-03-07 12:42:00,
2013-03-07 04:47:00,32.5,32.2,29.96,SSW,202,0.0,0.0,99,0.00,,,0.00,WUHU21623XXSP,2013-03-07 12:47:00,
2013-03-07 04:52:00,32.5,32.2,29.96,SSW,202,0.0,0.0,99,0.00,,,0.00,WUHU21623XXSP,2013-03-07 12:52:00,
2013-03-07 04:57:00,32.5,32.2,29.96,SSW,202,0.0,0.0,99,0.00,,,0.00,WUHU21623XXSP,2013-03-07 12:57:00,
2013-03-07 05:02:00,32.5,32.2,29.96,South,180,0.0,0.0,99,0.00,,,0.00,WUHU21623XXSP,2013-03-07 13:02:00,
2013-03-07 05:07:00,32.5,32.2,29.96,South,180,0.0,0.0,99,0.02,,,0.00,WUHU21623XXSP,2013-03-07 13:07:00,
2013-03-07 05:12:00,32.7,32.4,29.96,South,180,0.0,0.0,99,0.02,,,0.02,WUHU21623XXSP,2013-03-07 13:12:00,
2013-03-07 05:17:00,32.7,32.4,29.97,South,180,0.0,0.0,99,0.02,,,0.02,WUHU21623XXSP,2013-03-07 13:17:00,
2013-03-07 05:22:00,32.7,32.4,29.97,South,180,0.0,0.0,99,0.02,,,0.02,WUHU21623XXSP,2013-03-07 13:22:00,
2013-03-07 05:27:00,32.7,32.4,29.97,South,180,0.0,0.0,99,0.02,,,0.02,WUHU21623XXSP,2013-03-07 13:27:00,
2013-03-07 05:33:00,32.7,32.4,29.97,South,180,0.0,0.0,99,0.02,,,0.02,WUHU21623XXSP,2013-03-07 13:33:00,
2013-03-07 05:38:00,32.7,32.4,29.97,South,180,0.0,0.0,99,0.02,,,0.02,WUHU21623XXSP,2013-03-07 13:38:00,
2013-03-07 05:43:00,32.7,32.4,29.97,South,180,0.0,0.0,99,0.02,,,0.02,WUHU21623XXSP,2013-03-07 13:43:00,
2013-03-07 05:48:00,32.7,32.4,29.98,South,180,0.0,0.0,99,0.02,,,0.02,WUHU21623XXSP,2013-03-07 13:48:00,
2013-03-07 05:53:00,32.7,32.4,29.98,South,180,0.0,0.0,99,0.02,,,0.02,WUHU21623XXSP,2013-03-07 13:53:00,
2013-03-07 05:58:00,32.7,32.4,29.98,South,180,0.0,0.0,99,0.02,,,0.02,WUHU21623XXSP,2013-03-07 13:58:00,
2013-03-07 06:03:00,32.7,32.4,29.98,South,180,0.0,0.0,99,0.02,,,0.02,WUHU21623XXSP,2013-03-07 14:03:00,
2013-03-07 06:08:00,32.7,32.4,29.99,South,180,0.0,0.0,99,0.00,,,0.02,WUHU21623XXSP,2013-03-07 14:08:00,
2013-03-07 06:13:00,32.7,32.4,29.99,SSW,202,14.3,14.3,99,0.00,,,0.02,WUHU21623XXSP,2013-03-07 14:13:00,
2013-03-07 06:18:00,32.9,32.6,29.99,SSW,202,12.8,14.3,99,0.00,,,0.02,WUHU21623XXSP,2013-03-07 14:18:00,
2013-03-07 06:23:00,32.9,32.6,29.99,SSW,202,16.3,19.0,99,0.02,,,0.02,WUHU21623XXSP,2013-03-07 14:23:00,
2013-03-07 06:28:00,32.9,32.6,29.99,South,180,16.1,19.0,99,0.02,,,0.04,WUHU21623XXSP,2013-03-07 14:28:00,
2013-03-07 06:33:00,32.9,32.6,30.00,South,180,9.8,16.3,99,0.02,,,0.04,WUHU21623XXSP,2013-03-07 14:33:00,
2013-03-07 06:38:00,32.9,32.3,30.00,SSW,202,13.4,14.1,98,0.02,,,0.04,WUHU21623XXSP,2013-03-07 14:38:00,
2013-03-07 06:43:00,32.9,32.3,30.00,South,180,15.4,15.4,98,0.02,,,0.04,WUHU21623XXSP,2013-03-07 14:43:00,
2013-03-07 06:48:00,32.9,32.3,30.00,SSW,202,13.2,15.4,98,0.02,,,0.04,WUHU21623XXSP,2013-03-07 14:48:00,
2013-03-07 06:53:00,32.9,32.3,30.00,SSW,202,12.5,13.2,98,0.02,,,0.04,WUHU21623XXSP,2013-03-07 14:53:00,
2013-03-07 06:58:00,32.9,32.3,30.00,South,180,13.2,13.2,98,0.02,,,0.04,WUHU21623XXSP,2013-03-07 14:58:00,
2013-03-07 07:03:00,32.9,32.3,30.01,South,180,8.7,13.2,98,0.02,,,0.04,WUHU21623XXSP,2013-03-07 15:03:00,
2013-03-07 07:08:00,33.1,32.5,30.01,SSW,202,11.2,11.2,98,0.02,,,0.04,WUHU21623XXSP,2013-03-07 15:08:00,
2013-03-07 07:13:00,33.1,32.5,30.01,SSW,202,10.7,11.2,98,0.02,,,0.04,WUHU21623XXSP,2013-03-07 15:13:00,
2013-03-07 07:18:00,33.1,32.5,30.01,South,180,11.0,11.2,98,0.02,,,0.04,WUHU21623XXSP,2013-03-07 15:18:00,
2013-03-07 07:23:00,33.3,32.7,30.01,SSW,202,12.8,12.8,98,0.00,,,0.04,WUHU21623XXSP,2013-03-07 15:23:00,
2013-03-07 07:28:00,33.4,32.8,30.01,SSE,157,9.4,13.0,98,0.00,,,0.04,WUHU21623XXSP,2013-03-07 15:28:00,
2013-03-07 07:33:00,33.4,32.8,30.01,South,180,15.2,15.2,98,0.00,,,0.04,WUHU21623XXSP,2013-03-07 15:33:00,
2013-03-07 07:38:00,33.4,32.8,30.02,SSW,202,13.0,15.2,98,0.00,,,0.04,WUHU21623XXSP,2013-03-07 15:38:00,
2013-03-07 07:43:00,33.6,33.0,30.02,South,180,10.5,15.2,98,0.00,,,0.04,WUHU21623XXSP,2013-03-07 15:43:00,
2013-03-07 07:48:00,33.6,33.0,30.02,South,180,12.8,16.1,98,0.00,,,0.04,WUHU21623XXSP,2013-03-07 15:48:00,
2013-03-07 07:53:00,34.2,33.6,30.02,South,180,10.1,16.1,98,0.00,,,0.04,WUHU21623XXSP,2013-03-07 15:53:00,
2013-03-07 07:58:00,34.3,33.7,30.02,South,180,13.6,13.6,98,0.00,,,0.04,WUHU21623XXSP,2013-03-07 15:58:00,
2013-03-07 08:03:00,34.3,33.7,30.02,South,180,14.3,14.3,98,0.00,,,0.04,WUHU21623XXSP,2013-03-07 16:03:00,
2013-03-07 08:08:00,34.7,34.1,30.02,SSE,157,6.5,14.3,98,0.00,,,0.04,WUHU21623XXSP,2013-03-07 16:08:00,
2013-03-07 08:13:00,35.2,34.6,30.03,SSW,202,11.6,11.6,98,0.00,,,0.04,WUHU21623XXSP,2013-03-07 16:13:00,
2013-03-07 08:18:00,35.8,35.2,30.03,South,180,14.5,14.5,98,0.00,,,0.04,WUHU21623XXSP,2013-03-07 16:18:00,
2013-03-07 08:23:00,36.1,35.2,30.03,SW,225,12.8,14.5,97,0.00,,,0.04,WUHU21623XXSP,2013-03-07 16:23:00,
2013-03-07 08:28:00,36.1,35.0,30.04,SSW,202,8.3,12.8,96,0.00,,,0.04,WUHU21623XXSP,2013-03-07 16:28:00,
2013-03-07 08:33:00,36.3,35.2,30.04,SSW,202,8.5,8.5,96,0.00,,,0.04,WUHU21623XXSP,2013-03-07 16:33:00,
2013-03-07 08:38:00,36.3,34.9,30.04,SSW,202,8.1,8.5,95,0.00,,,0.04,WUHU21623XXSP,2013-03-07 16:38:00,
2013-03-07 08:43:00,36.3,34.9,30.04,SSW,202,7.8,8.3,95,0.00,,,0.04,WUHU21623XXSP,2013-03-07 16:43:00,
2013-03-07 08:48:00,36.3,34.9,30.04,SSW,202,10.7,10.7,95,0.00,,,0.04,WUHU21623XXSP,2013-03-07 16:48:00,
2013-03-07 08:53:00,36.3,34.9,30.04,South,180,3.6,10.7,95,0.00,,,0.04,WUHU21623XXSP,2013-03-07 16:53:00,
2013-03-07 08:58:00,36.3,34.9,30.04,SSW,202,12.1,14.8,95,0.00,,,0.04,WUHU21623XXSP,2013-03-07 16:58:00,
2013-03-07 09:03:00,36.3,34.6,30.04,SSW,202,8.5,14.8,94,0.00,,,0.04,WUHU21623XXSP,2013-03-07 17:03:00,
2013-03-07 09:06:00,36.3,34.6,30.04,SSW,202,8.5,12.1,94,0.00,,,0.04,WUHU21623XXSP,2013-03-07 17:06:00,
2013-03-07 09:10:00,36.1,34.4,30.05,South,180,8.9,11.9,94,0.00,,,0.04,WUHU21623XXSP,2013-03-07 17:10:00,
2013-03-07 09:16:00,36.0,34.3,30.05,South,180,8.9,12.8,94,0.00,,,0.04,WUHU21623XXSP,2013-03-07 17:16:00,
2013-03-07 09:21:00,36.1,34.4,30.05,South,180,7.8,12.8,94,0.00,,,0.04,WUHU21623XXSP,2013-03-07 17:21:00,
2013-03-07 09:36:00,35.8,34.1,30.06,South,180,11.6,13.4,94,0.00,,,0.04,WUHU21623XXSP,2013-03-07 17:36:00,
2013-03-07 09:41:00,35.8,34.1,30.06,South,180,7.4,11.6,94,0.00,,,0.04,WUHU21623XXSP,2013-03-07 17:41:00,
2013-03-07 09:46:00,36.0,34.3,30.06,SSW,202,10.5,11.9,94,0.00,,,0.04,WUHU21623XXSP,2013-03-07 17:46:00,
2013-03-07 09:52:00,36.0,34.3,30.06,South,180,4.5,11.9,94,0.00,,,0.04,WUHU21623XXSP,2013-03-07 17:52:00,
2013-03-07 09:57:00,36.1,34.4,30.07,South,180,6.9,7.6,94,0.00,,,0.04,WUHU21623XXSP,2013-03-07 17:57:00,
2013-03-07 10:02:00,36.1,34.4,30.07,South,180,7.6,8.9,94,0.00,,,0.04,WUHU21623XXSP,2013-03-07 18:02:00,
2013-03-07 10:07:00,36.0,34.3,30.07,South,180,6.9,11.9,94,0.00,,,0.04,WUHU21623XXSP,2013-03-07 18:07:00,
2013-03-07 10:12:00,36.0,34.3,30.07,SSW,202,5.8,11.9,94,0.00,,,0.04,WUHU21623XXSP,2013-03-07 18:12:00,
2013-03-07 10:17:00,36.3,34.9,30.07,SSW,202,3.4,9.8,95,0.00,,,0.04,WUHU21623XXSP,2013-03-07 18:17:00,
2013-03-07 10:22:00,36.3,34.9,30.07,South,180,3.8,9.8,95,0.00,,,0.04,WUHU21623XXSP,2013-03-07 18:22:00,
2013-03-07 10:27:00,36.3,34.9,30.07,South,180,8.3,8.3,95,0.00,,,0.04,WUHU21623XXSP,2013-03-07 18:27:00,
2013-03-07 10:32:00,36.7,35.0,30.07,South,180,1.1,8.5,94,0.00,,,0.04,WUHU21623XXSP,2013-03-07 18:32:00,
2013-03-07 10:37:00,36.7,35.0,30.07,SSW,202,8.3,8.5,94,0.00,,,0.04,WUHU21623XXSP,2013-03-07 18:37:00,
2013-03-07 10:42:00,37.0,35.3,30.07,SSW,202,9.2,9.2,94,0.00,,,0.04,WUHU21623XXSP,2013-03-07 18:42:00,
2013-03-07 10:47:00,37.2,35.5,30.07,South,180,5.8,9.2,94,0.00,,,0.04,WUHU21623XXSP,2013-03-07 18:47:00,
2013-03-07 10:52:00,37.4,35.7,30.07,SSW,202,8.7,8.7,94,0.00,,,0.04,WUHU21623XXSP,2013-03-07 18:52:00,
2013-03-07 10:57:00,37.6,35.9,30.08,SSW,202,5.1,8.7,94,0.00,,,0.04,WUHU21623XXSP,2013-03-07 18:57:00,
2013-03-07 11:02:00,37.9,36.2,30.08,SSW,202,4.9,8.1,94,0.00,,,0.04,WUHU21623XXSP,2013-03-07 19:02:00,
2013-03-07 11:07:00,38.1,36.4,30.08,SSW,202,7.2,7.2,94,0.00,,,0.04,WUHU21623XXSP,2013-03-07 19:07:00,
2013-03-07 11:12:00,38.5,36.8,30.08,SSW,202,4.9,10.5,94,0.00,,,0.04,WUHU21623XXSP,2013-03-07 19:12:00,
2013-03-07 11:17:00,39.0,37.3,30.08,SSW,202,6.9,10.5,94,0.00,,,0.04,WUHU21623XXSP,2013-03-07 19:17:00,
2013-03-07 11:22:00,39.6,37.9,30.08,SSW,202,6.9,6.9,94,0.00,,,0.04,WUHU21623XXSP,2013-03-07 19:22:00,
2013-03-07 11:27:00,40.6,38.9,30.08,SSW,202,3.4,6.9,94,0.00,,,0.04,WUHU21623XXSP,2013-03-07 19:27:00,
2013-03-07 11:33:00,41.2,39.2,30.08,SSW,202,3.8,6.9,93,0.00,,,0.04,WUHU21623XXSP,2013-03-07 19:33:00,
2013-03-07 11:38:00,41.7,39.7,30.08,SSW,202,0.0,6.3,93,0.00,,,0.04,WUHU21623XXSP,2013-03-07 19:38:00,
2013-03-07 11:43:00,42.4,40.1,30.08,SSW,202,8.9,8.9,92,0.00,,,0.04,WUHU21623XXSP,2013-03-07 19:43:00,
2013-03-07 11:48:00,42.6,39.8,30.09,SSW,202,7.8,8.9,90,0.00,,,0.04,WUHU21623XXSP,2013-03-07 19:48:00,
2013-03-07 11:53:00,42.8,40.0,30.08,SSW,202,4.7,8.3,90,0.00,,,0.04,WUHU21623XXSP,2013-03-07 19:53:00,
2013-03-07 11:58:00,43.3,40.2,30.08,South,180,8.7,8.7,89,0.00,,,0.04,WUHU21623XXSP,2013-03-07 19:58:00,
2013-03-07 12:03:00,43.7,40.6,30.08,South,180,6.0,8.7,89,0.00,,,0.04,WUHU21623XXSP,2013-03-07 20:03:00,
2013-03-07 12:08:00,44.2,40.8,30.08,SW,225,6.7,8.3,88,0.00,,,0.04,WUHU21623XXSP,2013-03-07 20:08:00,
2013-03-07 12:13:00,44.1,40.1,30.08,SSW,202,5.8,8.3,86,0.00,,,0.04,WUHU21623XXSP,2013-03-07 20:13:00,
2013-03-07 12:18:00,43.7,39.7,30.08,SSW,202,1.6,6.5,86,0.00,,,0.04,WUHU21623XXSP,2013-03-07 20:18:00,
2013-03-07 12:23:00,43.3,39.0,30.08,South,180,8.9,8.9,85,0.00,,,0.04,WUHU21623XXSP,2013-03-07 20:23:00,
2013-03-07 12:28:00,42.6,38.6,30.08,SSW,202,0.0,8.9,86,0.00,,,0.04,WUHU21623XXSP,2013-03-07 20:28:00,
2013-03-07 12:33:00,42.4,38.4,30.08,South,180,8.3,8.3,86,0.00,,,0.04,WUHU21623XXSP,2013-03-07 20:33:00,
2013-03-07 12:38:00,42.1,38.4,30.08,South,180,0.0,8.3,87,0.00,,,0.04,WUHU21623XXSP,2013-03-07 20:38:00,
2013-03-07 12:43:00,42.6,38.9,30.08,South,180,0.0,2.0,87,0.00,,,0.04,WUHU21623XXSP,2013-03-07 20:43:00,
2013-03-07 12:48:00,42.6,38.6,30.07,SSE,157,3.4,3.4,86,0.00,,,0.04,WUHU21623XXSP,2013-03-07 20:48:00,
2013-03-07 12:53:00,42.4,38.4,30.07,SSE,157,1.3,6.5,86,0.00,,,0.04,WUHU21623XXSP,2013-03-07 20:53:00,
2013-03-07 12:58:00,42.4,38.1,30.07,SSE,157,3.6,6.5,85,0.00,,,0.04,WUHU21623XXSP,2013-03-07 20:58:00,
2013-03-07 13:03:00,42.6,38.3,30.07,SSW,202,0.0,3.6,85,0.00,,,0.04,WUHU21623XXSP,2013-03-07 21:03:00,
2013-03-07 13:08:00,43.0,38.7,30.07,South,180,0.0,1.1,85,0.00,,,0.04,WUHU21623XXSP,2013-03-07 21:08:00,
2013-03-07 13:13:00,43.0,38.7,30.07,South,180,5.6,5.6,85,0.00,,,0.04,WUHU21623XXSP,2013-03-07 21:13:00,
2013-03-07 13:18:00,43.0,38.7,30.07,SSW,202,0.0,5.6,85,0.00,,,0.04,WUHU21623XXSP,2013-03-07 21:18:00,
2013-03-07 13:23:00,42.4,37.8,30.07,SSE,157,1.8,5.6,84,0.00,,,0.04,WUHU21623XXSP,2013-03-07 21:23:00,
2013-03-07 13:28:00,42.1,37.5,30.07,SSE,157,0.0,1.8,84,0.00,,,0.04,WUHU21623XXSP,2013-03-07 21:28:00,
2013-03-07 13:33:00,41.7,37.2,30.07,SSE,157,0.0,0.0,84,0.00,,,0.04,WUHU21623XXSP,2013-03-07 21:33:00,
2013-03-07 13:38:00,41.5,37.3,30.07,SSE,157,0.0,0.0,85,0.00,,,0.04,WUHU21623XXSP,2013-03-07 21:38:00,
2013-03-07 13:43:00,41.5,37.3,30.07,South,180,0.0,6.5,85,0.00,,,0.04,WUHU21623XXSP,2013-03-07 21:43:00,
2013-03-07 13:48:00,41.4,37.2,30.08,South,180,8.9,8.9,85,0.00,,,0.04,WUHU21623XXSP,2013-03-07 21:48:00,
2013-03-07 13:53:00,40.8,36.9,30.08,SSW,202,3.4,8.9,86,0.00,,,0.04,WUHU21623XXSP,2013-03-07 21:53:00,
2013-03-07 13:58:00,40.3,36.4,30.08,SSW,202,8.3,8.3,86,0.00,,,0.04,WUHU21623XXSP,2013-03-07 21:58:00,
2013-03-07 14:04:00,39.4,35.8,30.08,SSW,202,6.3,8.3,87,0.00,,,0.04,WUHU21623XXSP,2013-03-07 22:04:00,
2013-03-07 14:09:00,39.0,35.7,30.08,South,180,4.3,6.9,88,0.02,,,0.06,WUHU21623XXSP,2013-03-07 22:09:00,
2013-03-07 14:14:00,38.5,35.7,30.08,South,180,0.0,5.1,90,0.02,,,0.06,WUHU21623XXSP,2013-03-07 22:14:00,
2013-03-07 14:19:00,38.3,35.5,30.09,South,180,0.0,5.1,90,0.04,,,0.08,WUHU21623XXSP,2013-03-07 22:19:00,
2013-03-07 14:24:00,38.3,35.5,30.08,South,180,0.0,0.0,90,0.04,,,0.08,WUHU21623XXSP,2013-03-07 22:24:00,
2013-03-07 14:29:00,38.5,35.7,30.08,South,180,0.0,0.0,90,0.04,,,0.08,WUHU21623XXSP,2013-03-07 22:29:00,
2013-03-07 14:34:00,38.5,36.0,30.08,South,180,0.0,0.0,91,0.04,,,0.08,WUHU21623XXSP,2013-03-07 22:34:00,
2013-03-07 14:39:00,38.5,36.3,30.08,South,180,0.0,0.0,92,0.04,,,0.08,WUHU21623XXSP,2013-03-07 22:39:00,
2013-03-07 14:44:00,38.5,36.0,30.08,South,180,0.0,0.0,91,0.04,,,0.08,WUHU21623XXSP,2013-03-07 22:44:00,
2013-03-07 14:49:00,38.7,36.5,30.08,South,180,0.0,0.0,92,0.04,,,0.08,WUHU21623XXSP,2013-03-07 22:49:00,
2013-03-07 14:54:00,38.5,36.3,30.08,South,180,0.0,0.0,92,0.04,,,0.08,WUHU21623XXSP,2013-03-07 22:54:00,
2013-03-07 14:55:00,38.5,36.3,30.08,South,180,0.0,0.0,92,0.04,,,0.08,WUHU21623XXSP,2013-03-07 22:55:00,
2013-03-07 14:59:00,38.5,36.6,30.08,South,180,0.0,0.0,93,0.04,,,0.08,WUHU21623XXSP,2013-03-07 22:59:00,
2013-03-07 15:01:00,38.5,36.6,30.08,South,180,0.0,0.0,93,0.04,,,0.08,WUHU21623XXSP,2013-03-07 23:01:00,
2013-03-07 15:04:00,38.5,36.6,30.08,South,180,0.0,0.0,93,0.04,,,0.08,WUHU21623XXSP,2013-03-07 23:04:00,
2013-03-07 15:09:00,38.5,36.6,30.09,South,180,0.0,0.0,93,0.02,,,0.08,WUHU21623XXSP,2013-03-07 23:09:00,
2013-03-07 15:14:00,38.5,36.6,30.08,South,180,0.0,0.0,93,0.00,,,0.08,WUHU21623XXSP,2013-03-07 23:14:00,
2013-03-07 15:19:00,38.7,36.7,30.08,South,180,0.0,0.0,93,0.00,,,0.08,WUHU21623XXSP,2013-03-07 23:19:00,
2013-03-07 15:24:00,38.8,36.8,30.08,South,180,0.0,0.0,93,0.00,,,0.08,WUHU21623XXSP,2013-03-07 23:24:00,
2013-03-07 15:29:00,38.8,36.8,30.08,South,180,0.0,0.0,93,0.00,,,0.08,WUHU21623XXSP,2013-03-07 23:29:00,
2013-03-07 15:34:00,39.0,37.0,30.08,South,180,0.0,0.0,93,0.00,,,0.08,WUHU21623XXSP,2013-03-07 23:34:00,
2013-03-07 15:39:00,39.4,37.4,30.08,South,180,0.0,0.0,93,0.00,,,0.08,WUHU21623XXSP,2013-03-07 23:39:00,
2013-03-07 15:44:00,39.4,37.4,30.08,South,180,0.0,0.0,93,0.00,,,0.08,WUHU21623XXSP,2013-03-07 23:44:00,
2013-03-07 15:49:00,39.6,37.6,30.08,South,180,0.0,0.0,93,0.00,,,0.08,WUHU21623XXSP,2013-03-07 23:49:00,
2013-03-07 15:54:00,39.6,37.6,30.08,South,180,0.0,0.0,93,0.00,,,0.08,WUHU21623XXSP,2013-03-07 23:54:00,
2013-03-07 15:59:00,39.6,37.4,30.08,NE,45,2.9,2.9,92,0.00,,,0.08,WUHU21623XXSP,2013-03-07 23:59:00,
2013-03-07 16:04:00,39.4,37.2,30.08,NE,45,1.8,5.6,92,0.00,,,0.08,WUHU21623XXSP,2013-03-08 00:04:00,
2013-03-07 16:09:00,39.0,36.8,30.08,NE,45,0.0,5.6,92,0.00,,,0.08,WUHU21623XXSP,2013-03-08 00:09:00,
2013-03-07 16:14:00,39.0,36.8,30.08,NE,45,0.0,0.0,92,0.00,,,0.08,WUHU21623XXSP,2013-03-08 00:14:00,
2013-03-07 16:19:00,38.8,36.8,30.08,NE,45,0.0,0.0,93,0.00,,,0.08,WUHU21623XXSP,2013-03-08 00:19:00,
2013-03-07 16:24:00,38.8,36.8,30.08,NE,45,0.0,1.1,93,0.00,,,0.08,WUHU21623XXSP,2013-03-08 00:24:00,
2013-03-07 16:29:00,38.8,36.8,30.08,NE,45,0.0,1.1,93,0.00,,,0.08,WUHU21623XXSP,2013-03-08 00:29:00,
2013-03-07 16:34:00,38.8,36.8,30.08,NE,45,0.0,0.0,93,0.00,,,0.08,WUHU21623XXSP,2013-03-08 00:34:00,
2013-03-07 16:38:00,38.5,36.6,30.08,NE,45,0.0,0.0,93,0.00,,,0.08,WUHU21623XXSP,2013-03-08 00:38:00,
2013-03-07 16:39:00,38.5,36.6,30.08,NE,45,0.0,0.0,93,0.00,,,0.08,WUHU21623XXSP,2013-03-08 00:39:00,
2013-03-07 16:44:00,38.5,36.6,30.08,NE,45,0.0,0.0,93,0.00,,,0.08,WUHU21623XXSP,2013-03-08 00:44:00,
2013-03-07 16:49:00,38.3,36.4,30.08,NE,45,0.0,0.0,93,0.00,,,0.08,WUHU21623XXSP,2013-03-08 00:49:00,
2013-03-07 16:55:00,38.3,36.4,30.08,NE,45,0.0,0.0,93,0.00,,,0.08,WUHU21623XXSP,2013-03-08 00:55:00,
2013-03-07 17:00:00,37.9,36.0,30.08,NE,45,0.0,0.0,93,0.00,,,0.08,WUHU21623XXSP,2013-03-08 01:00:00,
2013-03-07 17:05:00,37.9,36.0,30.08,NE,45,0.0,0.0,93,0.00,,,0.08,WUHU21623XXSP,2013-03-08 01:05:00,
2013-03-07 17:10:00,37.8,35.9,30.08,NE,45,0.0,0.0,93,0.00,,,0.08,WUHU21623XXSP,2013-03-08 01:10:00,
2013-03-07 17:15:00,37.6,35.7,30.08,NE,45,0.0,0.0,93,0.00,,,0.08,WUHU21623XXSP,2013-03-08 01:15:00,
2013-03-07 17:20:00,37.6,35.9,30.08,NE,45,0.0,0.0,94,0.00,,,0.08,WUHU21623XXSP,2013-03-08 01:20:00,
2013-03-07 17:25:00,37.2,35.5,30.08,NE,45,0.0,2.2,94,0.00,,,0.08,WUHU21623XXSP,2013-03-08 01:25:00,
2013-03-07 17:30:00,37.2,35.5,30.08,NE,45,0.0,3.4,94,0.00,,,0.08,WUHU21623XXSP,2013-03-08 01:30:00,
2013-03-07 17:35:00,37.2,35.5,30.09,NE,45,0.0,3.4,94,0.00,,,0.08,WUHU21623XXSP,2013-03-08 01:35:00,
2013-03-07 17:40:00,37.2,35.5,30.08,NE,45,0.0,0.0,94,0.00,,,0.08,WUHU21623XXSP,2013-03-08 01:40:00,
2013-03-07 17:45:00,37.0,35.6,30.09,NE,45,0.0,0.0,95,0.00,,,0.08,WUHU21623XXSP,2013-03-08 01:45:00,
2013-03-07 17:50:00,37.0,35.6,30.09,NE,45,0.0,0.0,95,0.00,,,0.08,WUHU21623XXSP,2013-03-08 01:50:00,
2013-03-07 17:55:00,36.7,35.3,30.09,NE,45,6.7,6.7,95,0.00,,,0.08,WUHU21623XXSP,2013-03-08 01:55:00,
2013-03-07 18:00:00,36.7,35.3,30.09,NE,45,0.0,6.7,95,0.00,,,0.08,WUHU21623XXSP,2013-03-08 02:00:00,
2013-03-07 18:05:00,36.5,35.1,30.09,NE,45,0.0,6.7,95,0.00,,,0.08,WUHU21623XXSP,2013-03-08 02:05:00,
2013-03-07 18:10:00,36.3,34.9,30.09,NE,45,0.0,0.0,95,0.00,,,0.08,WUHU21623XXSP,2013-03-08 02:10:00,
2013-03-07 18:15:00,36.1,34.7,30.08,NE,45,0.0,0.0,95,0.00,,,0.08,WUHU21623XXSP,2013-03-08 02:15:00,
2013-03-07 18:20:00,36.0,34.6,30.09,NE,45,0.0,0.0,95,0.00,,,0.08,WUHU21623XXSP,2013-03-08 02:20:00,
2013-03-07 18:25:00,35.8,34.4,30.09,NE,45,4.7,4.7,95,0.00,,,0.08,WUHU21623XXSP,2013-03-08 02:25:00,
2013-03-07 18:30:00,35.4,34.0,30.09,NE,45,0.0,4.7,95,0.00,,,0.08,WUHU21623XXSP,2013-03-08 02:30:00,
2013-03-07 18:35:00,35.4,34.0,30.09,NE,45,0.0,0.0,95,0.00,,,0.08,WUHU21623XXSP,2013-03-08 02:35:00,
2013-03-07 18:40:00,35.2,33.8,30.09,NE,45,0.0,0.0,95,0.00,,,0.08,WUHU21623XXSP,2013-03-08 02:40:00,
2013-03-07 18:45:00,34.9,33.5,30.09,NE,45,0.0,0.0,95,0.00,,,0.08,WUHU21623XXSP,2013-03-08 02:45:00,
2013-03-07 18:50:00,34.9,33.5,30.09,NE,45,0.0,0.0,95,0.00,,,0.08,WUHU21623XXSP,2013-03-08 02:50:00,
2013-03-07 18:55:00,34.5,33.1,30.10,NE,45,0.0,0.0,95,0.00,,,0.08,WUHU21623XXSP,2013-03-08 02:55:00,
2013-03-07 19:00:00,34.3,32.9,30.09,NE,45,0.0,0.0,95,0.00,,,0.08,WUHU21623XXSP,2013-03-08 03:00:00,
2013-03-07 19:05:00,34.2,32.8,30.10,NE,45,0.0,0.0,95,0.00,,,0.08,WUHU21623XXSP,2013-03-08 03:05:00,
2013-03-07 19:10:00,33.6,32.5,30.10,NE,45,0.0,0.0,96,0.00,,,0.08,WUHU21623XXSP,2013-03-08 03:10:00,
2013-03-07 19:15:00,33.6,32.5,30.10,NE,45,0.0,0.0,96,0.00,,,0.08,WUHU21623XXSP,2013-03-08 03:15:00,
2013-03-07 19:20:00,33.6,32.5,30.10,NE,45,0.0,0.0,96,0.00,,,0.08,WUHU21623XXSP,2013-03-08 03:20:00,
2013-03-07 19:25:00,33.6,32.5,30.10,NE,45,0.0,0.0,96,0.00,,,0.08,WUHU21623XXSP,2013-03-08 03:25:00,
2013-03-07 19:30:00,33.4,32.3,30.10,NE,45,0.0,0.0,96,0.00,,,0.08,WUHU21623XXSP,2013-03-08 03:30:00,
2013-03-07 19:35:00,33.3,32.2,30.10,NE,45,0.0,0.0,96,0.00,,,0.08,WUHU21623XXSP,2013-03-08 03:35:00,
2013-03-07 19:40:00,33.1,32.0,30.10,NE,45,0.0,0.0,96,0.00,,,0.08,WUHU21623XXSP,2013-03-08 03:40:00,
2013-03-07 19:45:00,32.9,31.8,30.10,NE,45,0.0,0.0,96,0.00,,,0.08,WUHU21623XXSP,2013-03-08 03:45:00,
2013-03-07 19:50:00,32.7,31.6,30.10,NE,45,0.0,0.0,96,0.00,,,0.08,WUHU21623XXSP,2013-03-08 03:50:00,
2013-03-07 19:55:00,32.5,31.4,30.10,NE,45,0.0,0.0,96,0.00,,,0.08,WUHU21623XXSP,2013-03-08 03:55:00,
2013-03-07 20:00:00,32.4,31.3,30.10,NE,45,0.0,0.0,96,0.00,,,0.08,WUHU21623XXSP,2013-03-08 04:00:00,
2013-03-07 20:05:00,32.2,31.1,30.10,NE,45,0.0,0.0,96,0.00,,,0.08,WUHU21623XXSP,2013-03-08 04:05:00,
2013-03-07 20:10:00,32.2,31.1,30.10,NE,45,0.0,0.0,96,0.00,,,0.08,WUHU21623XXSP,2013-03-08 04:10:00,
2013-03-07 20:15:00,32.0,30.9,30.10,NE,45,0.0,0.0,96,0.00,,,0.08,WUHU21623XXSP,2013-03-08 04:15:00,
2013-03-07 20:20:00,31.8,30.7,30.10,NE,45,0.0,0.0,96,0.00,,,0.08,WUHU21623XXSP,2013-03-08 04:20:00,
2013-03-07 20:25:00,31.6,30.5,30.10,NE,45,0.0,0.0,96,0.00,,,0.08,WUHU21623XXSP,2013-03-08 04:25:00,
2013-03-07 20:30:00,31.1,30.0,30.10,NE,45,0.0,0.0,96,0.00,,,0.08,WUHU21623XXSP,2013-03-08 04:30:00,
2013-03-07 20:35:00,30.7,29.6,30.10,NE,45,0.0,0.0,96,0.00,,,0.08,WUHU21623XXSP,2013-03-08 04:35:00,
2013-03-07 20:40:00,30.6,29.5,30.10,NE,45,0.0,0.0,96,0.00,,,0.08,WUHU21623XXSP,2013-03-08 04:40:00,
2013-03-07 20:45:00,30.4,29.3,30.10,NE,45,0.0,0.0,96,0.00,,,0.08,WUHU21623XXSP,2013-03-08 04:45:00,
2013-03-07 20:50:00,30.0,28.9,30.10,NE,45,0.0,0.0,96,0.00,,,0.08,WUHU21623XXSP,2013-03-08 04:50:00,
2013-03-07 20:55:00,30.0,28.9,30.10,NE,45,0.0,0.0,96,0.00,,,0.08,WUHU21623XXSP,2013-03-08 04:55:00,
2013-03-07 21:00:00,30.0,28.9,30.10,NE,45,0.0,0.0,96,0.00,,,0.08,WUHU21623XXSP,2013-03-08 05:00:00,
2013-03-07 21:01:00,29.8,28.7,30.10,NE,45,0.0,0.0,96,0.00,,,0.08,WUHU21623XXSP,2013-03-08 05:01:00,
2013-03-07 21:06:00,29.7,28.6,30.10,NE,45,0.0,0.0,96,0.00,,,0.08,WUHU21623XXSP,2013-03-08 05:06:00,
2013-03-07 21:11:00,29.5,28.4,30.10,NE,45,0.0,0.0,96,0.00,,,0.08,WUHU21623XXSP,2013-03-08 05:11:00,
2013-03-07 21:16:00,29.3,28.2,30.10,NE,45,0.0,0.0,96,0.00,,,0.08,WUHU21623XXSP,2013-03-08 05:16:00,
2013-03-07 21:21:00,29.3,28.2,30.09,NE,45,0.0,0.0,96,0.00,,,0.08,WUHU21623XXSP,2013-03-08 05:21:00,
2013-03-07 21:26:00,29.1,28.0,30.10,NE,45,0.0,0.0,96,0.00,,,0.08,WUHU21623XXSP,2013-03-08 05:26:00,
2013-03-07 21:31:00,28.9,27.8,30.10,NE,45,0.0,0.0,96,0.00,,,0.08,WUHU21623XXSP,2013-03-08 05:31:00,
2013-03-07 21:36:00,28.8,27.7,30.10,NE,45,0.0,0.0,96,0.00,,,0.08,WUHU21623XXSP,2013-03-08 05:36:00,
2013-03-07 21:41:00,28.6,27.5,30.10,NE,45,0.0,0.0,96,0.00,,,0.08,WUHU21623XXSP,2013-03-08 05:41:00,
2013-03-07 21:46:00,28.6,27.5,30.10,NE,45,0.0,0.0,96,0.00,,,0.08,WUHU21623XXSP,2013-03-08 05:46:00,
2013-03-07 21:51:00,28.8,27.7,30.10,NE,45,0.0,0.0,96,0.00,,,0.08,WUHU21623XXSP,2013-03-08 05:51:00,
2013-03-07 21:56:00,28.8,27.7,30.10,NE,45,0.0,0.0,96,0.00,,,0.08,WUHU21623XXSP,2013-03-08 05:56:00,
2013-03-07 22:01:00,28.6,27.5,30.10,NE,45,0.0,0.0,96,0.00,,,0.08,WUHU21623XXSP,2013-03-08 06:01:00,
2013-03-07 22:06:00,28.2,27.1,30.10,NE,45,0.0,0.0,96,0.00,,,0.08,WUHU21623XXSP,2013-03-08 06:06:00,
2013-03-07 22:11:00,28.2,27.1,30.10,NE,45,0.0,0.0,96,0.00,,,0.08,WUHU21623XXSP,2013-03-08 06:11:00,
2013-03-07 22:16:00,28.0,26.9,30.10,NE,45,0.0,0.0,96,0.00,,,0.08,WUHU21623XXSP,2013-03-08 06:16:00,
2013-03-07 22:21:00,28.0,26.9,30.10,NE,45,0.0,0.0,96,0.00,,,0.08,WUHU21623XXSP,2013-03-08 06:21:00,
2013-03-07 22:26:00,28.2,27.1,30.10,NE,45,0.0,0.0,96,0.00,,,0.08,WUHU21623XXSP,2013-03-08 06:26:00,
2013-03-07 22:31:00,28.2,27.1,30.10,NE,45,0.0,0.0,96,0.00,,,0.08,WUHU21623XXSP,2013-03-08 06:31:00,
2013-03-07 22:36:00,28.2,27.1,30.10,NE,45,0.0,0.0,96,0.00,,,0.08,WUHU21623XXSP,2013-03-08 06:36:00,
2013-03-07 22:41:00,28.2,27.1,30.10,NE,45,0.0,0.0,96,0.00,,,0.08,WUHU21623XXSP,2013-03-08 06:41:00,
2013-03-07 22:46:00,28.0,26.9,30.10,NE,45,0.0,0.0,96,0.00,,,0.08,WUHU21623XXSP,2013-03-08 06:46:00,
2013-03-07 22:51:00,28.0,26.9,30.10,NE,45,0.0,0.0,96,0.00,,,0.08,WUHU21623XXSP,2013-03-08 06:51:00,
2013-03-07 22:56:00,28.0,26.9,30.10,NE,45,0.0,0.0,96,0.00,,,0.08,WUHU21623XXSP,2013-03-08 06:56:00,
2013-03-07 23:01:00,28.2,27.1,30.10,NE,45,0.0,0.0,96,0.00,,,0.08,WUHU21623XXSP,2013-03-08 07:01:00,
2013-03-07 23:06:00,28.4,27.3,30.10,NE,45,0.0,0.0,96,0.00,,,0.08,WUHU21623XXSP,2013-03-08 07:06:00,
2013-03-07 23:11:00,28.9,27.8,30.09,NE,45,0.0,0.0,96,0.00,,,0.08,WUHU21623XXSP,2013-03-08 07:11:00,
2013-03-07 23:16:00,28.6,27.5,30.09,NE,45,0.0,0.0,96,0.00,,,0.08,WUHU21623XXSP,2013-03-08 07:16:00,
2013-03-07 23:21:00,28.2,27.1,30.09,NE,45,0.0,0.0,96,0.00,,,0.08,WUHU21623XXSP,2013-03-08 07:21:00,
2013-03-07 23:26:00,27.7,26.6,30.09,NE,45,0.0,0.0,96,0.00,,,0.08,WUHU21623XXSP,2013-03-08 07:26:00,
2013-03-07 23:31:00,27.0,25.9,30.09,NE,45,0.0,0.0,96,0.00,,,0.08,WUHU21623XXSP,2013-03-08 07:31:00,
2013-03-07 23:36:00,26.8,25.7,30.09,NE,45,0.0,0.0,96,0.00,,,0.08,WUHU21623XXSP,2013-03-08 07:36:00,
2013-03-07 23:41:00,26.4,25.3,30.10,NE,45,0.0,0.0,96,0.00,,,0.08,WUHU21623XXSP,2013-03-08 07:41:00,
2013-03-07 23:46:00,26.4,25.3,30.10,NE,45,0.0,0.0,96,0.00,,,0.08,WUHU21623XXSP,2013-03-08 07:46:00,
2013-03-07 23:51:00,26.6,25.5,30.10,NE,45,0.0,0.0,96,0.00,,,0.08,WUHU21623XXSP,2013-03-08 07:51:00,
2013-03-07 23:56:00,26.6,25.5,30.10,NE,45,0.0,0.0,96,0.00,,,0.08,WUHU21623XXSP,2013-03-08 07:56:00,